createdAt,value
2023-08-14T00:02:23.446Z,58.60
2023-08-14T00:04:56.832Z,58.60
2023-08-14T00:07:30.132Z,58.60
2023-08-14T00:10:03.443Z,58.60
2023-08-14T00:12:38.007Z,58.70
2023-08-14T00:15:11.677Z,58.70
2023-08-14T00:17:44.979Z,58.80
2023-08-14T00:20:18.539Z,58.90
2023-08-14T00:22:51.881Z,58.80
2023-08-14T00:25:25.441Z,58.90
2023-08-14T00:28:00.165Z,58.90
2023-08-14T00:30:33.965Z,59.00
2023-08-14T00:33:07.429Z,59.10
2023-08-14T00:35:40.803Z,59.10
2023-08-14T00:38:14.078Z,59.10
2023-08-14T00:40:47.360Z,59.10
2023-08-14T00:43:23.661Z,59.10
2023-08-14T00:45:57.909Z,59.20
2023-08-14T00:48:31.822Z,59.30
2023-08-14T00:51:05.400Z,59.30
2023-08-14T00:53:38.763Z,59.40
2023-08-14T00:56:13.123Z,59.30
2023-08-14T00:58:48.254Z,59.40
2023-08-14T01:01:21.542Z,59.50
2023-08-14T01:03:55.845Z,60.10
2023-08-14T01:06:29.120Z,59.70
2023-08-14T01:09:02.511Z,59.70
2023-08-14T01:11:44.526Z,59.80
2023-08-14T01:14:25.560Z,59.80
2023-08-14T01:17:02.782Z,59.80
2023-08-14T01:19:41.760Z,59.80
2023-08-14T01:22:19.329Z,59.70
2023-08-14T01:24:56.959Z,59.70
2023-08-14T01:27:32.407Z,59.70
2023-08-14T01:30:06.537Z,59.70
2023-08-14T01:32:40.177Z,59.70
2023-08-14T01:35:13.481Z,59.60
2023-08-14T01:37:53.640Z,59.60
2023-08-14T01:40:36.540Z,59.70
2023-08-14T01:43:16.953Z,59.70
2023-08-14T01:45:50.462Z,59.90
2023-08-14T01:48:24.379Z,59.90
2023-08-14T01:50:58.417Z,60.00
2023-08-14T01:53:34.638Z,60.00
2023-08-14T01:56:08.016Z,60.00
2023-08-14T01:58:43.058Z,60.10
2023-08-14T02:01:16.495Z,60.10
2023-08-14T02:03:49.921Z,60.60
2023-08-14T02:06:23.207Z,60.10
2023-08-14T02:08:56.523Z,60.60
2023-08-14T02:11:29.877Z,60.00
2023-08-14T02:14:04.761Z,60.10
2023-08-14T02:16:38.080Z,60.20
2023-08-14T02:19:11.951Z,60.20
2023-08-14T02:21:45.227Z,60.30
2023-08-14T02:24:18.868Z,60.30
2023-08-14T02:26:52.106Z,60.30
2023-08-14T02:29:26.704Z,60.30
2023-08-14T02:31:59.968Z,60.40
2023-08-14T02:34:34.961Z,60.30
2023-08-14T02:37:08.403Z,60.40
2023-08-14T02:39:41.838Z,60.30
2023-08-14T02:42:19.192Z,60.40
2023-08-14T02:44:55.037Z,60.40
2023-08-14T02:47:30.815Z,60.30
2023-08-14T02:50:04.241Z,60.40
2023-08-14T02:52:37.713Z,60.30
2023-08-14T02:55:11.171Z,60.30
2023-08-14T02:57:44.467Z,60.30
2023-08-14T03:00:21.459Z,60.40
2023-08-14T03:02:54.805Z,60.40
2023-08-14T03:05:28.166Z,60.40
2023-08-14T03:08:01.413Z,60.50
2023-08-14T03:10:34.842Z,60.50
2023-08-14T03:13:08.090Z,60.60
2023-08-14T03:15:42.752Z,60.70
2023-08-14T03:18:16.234Z,60.70
2023-08-14T03:20:49.602Z,60.70
2023-08-14T03:23:22.970Z,60.70
2023-08-14T03:25:56.223Z,60.70
2023-08-14T03:28:29.624Z,60.70
2023-08-14T03:31:04.305Z,60.70
2023-08-14T03:33:39.195Z,60.70
2023-08-14T03:36:15.222Z,60.70
2023-08-14T03:38:48.734Z,60.70
2023-08-14T03:41:22.129Z,60.70
2023-08-14T03:43:55.474Z,60.70
2023-08-14T03:46:31.434Z,60.70
2023-08-14T03:49:05.382Z,60.80
2023-08-14T03:51:38.738Z,60.80
2023-08-14T03:54:12.823Z,60.80
2023-08-14T03:56:46.204Z,60.90
2023-08-14T03:59:19.537Z,60.90
2023-08-14T04:01:54.265Z,60.90
2023-08-14T04:04:27.567Z,61.50
2023-08-14T04:07:00.950Z,60.90
2023-08-14T04:09:34.370Z,60.80
2023-08-14T04:12:08.797Z,60.90
2023-08-14T04:14:42.075Z,61.00
2023-08-14T04:17:16.675Z,60.90
2023-08-14T04:19:50.007Z,61.00
2023-08-14T04:22:23.323Z,60.90
2023-08-14T04:24:56.644Z,60.90
2023-08-14T04:27:30.002Z,60.90
2023-08-14T04:30:03.565Z,60.90
2023-08-14T04:32:39.176Z,60.90
2023-08-14T04:35:12.656Z,61.00
2023-08-14T04:37:46.603Z,61.00
2023-08-14T04:40:20.188Z,61.00
2023-08-14T04:42:53.536Z,61.00
2023-08-14T04:45:26.912Z,61.00
2023-08-14T04:48:01.738Z,61.00
2023-08-14T04:50:35.064Z,61.00
2023-08-14T04:53:08.351Z,61.00
2023-08-14T04:55:43.865Z,61.00
2023-08-14T04:58:18.619Z,61.00
2023-08-14T05:00:53.092Z,61.00
2023-08-14T05:03:28.041Z,60.90
2023-08-14T05:06:01.361Z,61.00
2023-08-14T05:08:35.278Z,60.90
2023-08-14T05:11:09.000Z,60.90
2023-08-14T05:13:45.693Z,61.00
2023-08-14T05:16:23.268Z,61.00
2023-08-14T05:18:58.409Z,61.00
2023-08-14T05:21:31.787Z,61.00
2023-08-14T05:24:05.423Z,61.10
2023-08-14T05:26:38.704Z,61.10
2023-08-14T05:29:12.013Z,61.00
2023-08-14T05:31:45.363Z,61.00
2023-08-14T05:34:20.108Z,60.90
2023-08-14T05:36:53.439Z,61.00
2023-08-14T05:39:28.085Z,61.00
2023-08-14T05:42:01.468Z,61.00
2023-08-14T05:44:34.740Z,61.00
2023-08-14T05:47:08.097Z,61.10
2023-08-14T05:49:42.695Z,61.10
2023-08-14T05:52:16.342Z,61.10
2023-08-14T05:54:49.896Z,61.20
2023-08-14T05:57:23.174Z,61.10
2023-08-14T05:59:56.446Z,61.10
2023-08-14T06:02:29.783Z,61.00
2023-08-14T06:05:04.637Z,61.10
2023-08-14T06:07:38.321Z,61.10
2023-08-14T06:10:12.157Z,61.10
2023-08-14T06:12:45.537Z,61.00
2023-08-14T06:15:20.105Z,61.10
2023-08-14T06:17:53.924Z,61.10
2023-08-14T06:20:28.536Z,61.20
2023-08-14T06:23:01.782Z,61.20
2023-08-14T06:25:35.048Z,61.20
2023-08-14T06:28:08.356Z,61.30
2023-08-14T06:30:42.020Z,61.40
2023-08-14T06:33:15.667Z,61.30
2023-08-14T06:35:50.376Z,61.30
2023-08-14T06:38:23.671Z,61.30
2023-08-14T06:40:56.943Z,61.40
2023-08-14T06:43:30.210Z,61.40
2023-08-14T06:46:03.555Z,61.30
2023-08-14T06:48:36.880Z,61.30
2023-08-14T06:51:11.565Z,61.30
2023-08-14T06:53:45.314Z,61.30
2023-08-14T06:56:18.458Z,61.50
2023-08-14T06:58:51.759Z,61.60
2023-08-14T07:01:25.516Z,61.70
2023-08-14T07:03:58.824Z,61.90
2023-08-14T07:06:33.533Z,62.00
2023-08-14T07:09:07.136Z,62.00
2023-08-14T07:11:41.050Z,62.10
2023-08-14T07:14:14.396Z,62.30
2023-08-14T07:16:48.228Z,62.70
2023-08-14T07:19:21.480Z,62.50
2023-08-14T07:21:56.065Z,62.90
2023-08-14T07:24:29.414Z,63.30
2023-08-14T07:27:02.706Z,63.40
2023-08-14T07:29:36.532Z,63.50
2023-08-14T07:32:10.057Z,63.60
2023-08-14T07:34:43.362Z,63.80
2023-08-14T07:37:18.015Z,63.90
2023-08-14T07:39:51.249Z,64.00
2023-08-14T07:42:24.576Z,64.40
2023-08-14T07:44:57.848Z,64.90
2023-08-14T07:47:31.295Z,65.10
2023-08-14T07:50:04.814Z,65.20
2023-08-14T07:52:40.787Z,65.20
2023-08-14T07:55:14.047Z,65.40
2023-08-14T07:57:47.355Z,66.20
2023-08-14T08:00:20.982Z,66.70
2023-08-14T08:02:54.263Z,67.00
2023-08-14T08:05:27.636Z,67.00
2023-08-14T08:08:03.426Z,67.00
2023-08-14T08:10:36.881Z,67.00
2023-08-14T08:13:10.187Z,66.70
2023-08-14T08:15:43.532Z,66.60
2023-08-14T08:18:16.922Z,66.30
2023-08-14T08:20:50.240Z,65.80
2023-08-14T08:23:24.968Z,65.20
2023-08-14T08:25:58.252Z,64.40
2023-08-14T08:28:31.542Z,63.70
2023-08-14T08:31:04.990Z,63.00
2023-08-14T08:33:38.280Z,62.50
2023-08-14T08:36:11.855Z,62.00
2023-08-14T08:38:46.681Z,59.60
2023-08-14T08:41:23.438Z,57.70
2023-08-14T08:44:02.360Z,56.40
2023-08-14T08:46:38.310Z,55.70
2023-08-14T08:49:12.876Z,55.30
2023-08-14T08:51:48.895Z,54.80
2023-08-14T08:54:24.070Z,54.50
2023-08-14T08:56:58.548Z,53.70
2023-08-14T08:59:34.071Z,55.10
2023-08-14T09:02:07.535Z,55.20
2023-08-14T09:04:40.935Z,55.20
2023-08-14T09:07:14.488Z,55.00
2023-08-14T09:09:50.264Z,54.90
2023-08-14T09:12:23.574Z,55.00
2023-08-14T09:15:08.420Z,54.80
2023-08-14T09:17:41.785Z,54.40
2023-08-14T09:20:24.393Z,54.50
2023-08-14T09:23:02.620Z,54.40
2023-08-14T09:25:37.355Z,54.90
2023-08-14T09:28:11.156Z,54.70
2023-08-14T09:30:44.269Z,54.60
2023-08-14T09:33:17.680Z,54.50
2023-08-14T09:35:55.890Z,54.70
2023-08-14T09:38:29.526Z,54.50
2023-08-14T09:41:04.868Z,54.00
2023-08-14T09:43:38.860Z,53.10
2023-08-14T09:46:13.324Z,52.40
2023-08-14T09:48:48.573Z,51.90
2023-08-14T09:51:21.936Z,51.60
2023-08-14T09:53:57.591Z,51.30
2023-08-14T09:56:33.274Z,50.70
2023-08-14T09:59:08.060Z,50.40
2023-08-14T10:01:41.843Z,50.10
2023-08-14T10:04:15.229Z,49.90
2023-08-14T10:06:49.004Z,49.80
2023-08-14T10:09:23.719Z,50.10
2023-08-14T10:12:06.669Z,49.50
2023-08-14T10:14:42.087Z,49.30
2023-08-14T10:17:21.299Z,49.20
2023-08-14T10:19:55.761Z,49.10
2023-08-14T10:22:30.343Z,48.80
2023-08-14T10:25:05.520Z,49.10
2023-08-14T10:27:41.240Z,48.40
2023-08-14T10:30:15.608Z,48.10
2023-08-14T10:32:50.028Z,48.10
2023-08-14T10:35:24.762Z,47.90
2023-08-14T10:38:08.810Z,47.80
2023-08-14T10:40:54.895Z,47.70
2023-08-14T10:43:32.429Z,47.40
2023-08-14T10:46:10.916Z,47.40
2023-08-14T10:48:46.158Z,47.30
2023-08-14T10:51:23.265Z,47.30
2023-08-14T10:54:04.986Z,47.10
2023-08-14T10:56:43.241Z,46.80
2023-08-14T10:59:25.931Z,47.00
2023-08-14T11:02:07.227Z,46.60
2023-08-14T11:04:58.445Z,46.50
2023-08-14T11:07:32.942Z,46.50
2023-08-14T11:10:07.610Z,46.60
2023-08-14T11:12:41.035Z,46.70
2023-08-14T11:15:16.008Z,47.30
2023-08-14T11:17:49.758Z,48.20
2023-08-14T11:20:23.183Z,50.40
2023-08-14T11:22:56.781Z,52.50
2023-08-14T11:25:30.266Z,52.10
2023-08-14T11:28:03.910Z,52.00
2023-08-14T11:30:38.849Z,53.90
2023-08-14T11:33:12.188Z,55.30
2023-08-14T11:35:46.915Z,54.70
2023-08-14T11:38:21.066Z,56.40
2023-08-14T11:40:54.333Z,57.30
2023-08-14T11:43:27.781Z,56.40
2023-08-14T11:46:02.610Z,56.00
2023-08-14T11:48:35.912Z,56.30
2023-08-14T11:51:09.752Z,56.80
2023-08-14T11:53:44.692Z,57.60
2023-08-14T11:56:19.976Z,56.70
2023-08-14T11:59:03.334Z,56.60
2023-08-14T12:01:42.437Z,56.40
2023-08-14T12:04:15.969Z,56.00
2023-08-14T12:06:49.308Z,55.70
2023-08-14T12:09:27.762Z,55.30
2023-08-14T12:12:01.135Z,55.10
2023-08-14T12:14:41.300Z,55.00
2023-08-14T12:17:20.817Z,54.80
2023-08-14T12:19:58.626Z,54.80
2023-08-14T12:22:32.664Z,54.60
2023-08-14T12:25:10.243Z,54.40
2023-08-14T12:27:43.577Z,54.20
2023-08-14T12:30:16.864Z,54.00
2023-08-14T12:32:51.575Z,53.80
2023-08-14T12:35:24.903Z,53.50
2023-08-14T12:37:59.754Z,53.30
2023-08-14T12:40:33.320Z,53.00
2023-08-14T12:43:06.931Z,52.70
2023-08-14T12:45:40.559Z,52.50
2023-08-14T12:48:15.546Z,52.40
2023-08-14T12:50:48.854Z,52.50
2023-08-14T12:53:22.065Z,52.50
2023-08-14T12:58:35.593Z,52.60
2023-08-14T13:01:08.945Z,52.60
2023-08-14T13:03:43.845Z,52.80
2023-08-14T13:06:19.080Z,53.00
2023-08-14T13:08:53.592Z,52.90
2023-08-14T13:11:27.344Z,52.70
2023-08-14T13:14:01.104Z,52.40
2023-08-14T13:16:34.283Z,52.30
2023-08-14T13:19:09.024Z,52.20
2023-08-14T13:21:42.307Z,52.20
2023-08-14T13:24:15.651Z,52.10
2023-08-14T13:26:48.922Z,52.30
2023-08-14T13:29:22.479Z,52.30
2023-08-14T13:31:55.750Z,52.30
2023-08-14T13:34:30.699Z,52.20
2023-08-14T13:37:04.122Z,52.20
2023-08-14T13:39:37.439Z,52.10
2023-08-14T13:42:10.829Z,52.10
2023-08-14T13:44:44.872Z,52.10
2023-08-14T13:47:18.749Z,52.10
2023-08-14T13:49:53.485Z,52.00
2023-08-14T13:52:29.666Z,52.60
2023-08-14T13:55:03.383Z,52.10
2023-08-14T13:57:37.553Z,52.20
2023-08-14T14:00:12.867Z,52.30
2023-08-14T14:02:46.235Z,52.20
2023-08-14T14:05:21.026Z,52.30
2023-08-14T14:07:56.392Z,52.30
2023-08-14T14:10:30.924Z,52.30
2023-08-14T14:13:05.508Z,52.30
2023-08-14T14:15:41.546Z,52.30
2023-08-14T14:18:16.422Z,52.20
2023-08-14T14:20:51.205Z,52.80
2023-08-14T14:23:24.527Z,52.10
2023-08-14T14:25:57.867Z,52.00
2023-08-14T14:28:31.186Z,52.20
2023-08-14T14:31:04.408Z,52.00
2023-08-14T14:33:37.771Z,52.00
2023-08-14T14:36:12.380Z,51.90
2023-08-14T14:38:45.664Z,51.80
2023-08-14T14:41:19.062Z,52.00
2023-08-14T14:43:52.305Z,52.00
2023-08-14T14:46:25.703Z,51.90
2023-08-14T14:48:59.108Z,52.00
2023-08-14T14:51:35.019Z,52.40
2023-08-14T14:54:08.752Z,53.70
2023-08-14T14:56:41.865Z,53.40
2023-08-14T14:59:15.249Z,52.90
2023-08-14T15:01:48.587Z,52.60
2023-08-14T15:04:21.934Z,52.30
2023-08-14T15:06:56.663Z,52.20
2023-08-14T15:09:29.904Z,51.90
2023-08-14T15:12:03.190Z,51.70
2023-08-14T15:14:36.504Z,51.70
2023-08-14T15:17:09.824Z,51.60
2023-08-14T15:19:44.317Z,51.50
2023-08-14T15:22:19.050Z,51.40
2023-08-14T15:24:52.318Z,51.10
2023-08-14T15:27:25.542Z,51.10
2023-08-14T15:29:58.828Z,51.10
2023-08-14T15:32:32.348Z,51.20
2023-08-14T15:35:06.213Z,51.30
2023-08-14T15:37:40.850Z,51.30
2023-08-14T15:40:15.004Z,51.10
2023-08-14T15:42:48.436Z,51.70
2023-08-14T15:45:22.172Z,51.00
2023-08-14T15:47:55.675Z,50.90
2023-08-14T15:50:29.002Z,50.70
2023-08-14T15:53:03.774Z,50.70
2023-08-14T15:55:37.031Z,50.60
2023-08-14T15:58:10.268Z,50.40
2023-08-14T16:00:45.170Z,50.50
2023-08-14T16:03:18.611Z,50.40
2023-08-14T16:05:56.252Z,50.20
2023-08-14T16:08:30.960Z,50.10
2023-08-14T16:11:04.231Z,50.00
2023-08-14T16:13:37.610Z,50.00
2023-08-14T16:16:10.938Z,50.60
2023-08-14T16:18:44.304Z,50.70
2023-08-14T16:21:17.524Z,50.70
2023-08-14T16:23:52.154Z,50.80
2023-08-14T16:26:25.781Z,50.50
2023-08-14T16:28:59.113Z,50.50
2023-08-14T16:31:32.603Z,50.80
2023-08-14T16:34:06.020Z,50.40
2023-08-14T16:36:39.380Z,50.30
2023-08-14T16:39:16.148Z,50.40
2023-08-14T16:41:50.973Z,50.30
2023-08-14T16:44:24.214Z,50.20
2023-08-14T16:46:57.490Z,50.20
2023-08-14T16:49:30.790Z,50.40
2023-08-14T16:52:04.234Z,50.70
2023-08-14T16:54:38.892Z,51.20
2023-08-14T16:57:12.306Z,51.90
2023-08-14T16:59:45.554Z,52.10
2023-08-14T17:02:18.975Z,52.10
2023-08-14T17:04:52.326Z,52.40
2023-08-14T17:07:28.501Z,52.60
2023-08-14T17:10:03.184Z,52.70
2023-08-14T17:12:36.471Z,53.30
2023-08-14T17:15:12.947Z,52.80
2023-08-14T17:17:46.298Z,53.10
2023-08-14T17:20:20.052Z,53.10
2023-08-14T17:22:53.126Z,53.10
2023-08-14T17:25:27.755Z,53.20
2023-08-14T17:28:01.096Z,53.20
2023-08-14T17:30:37.508Z,53.40
2023-08-14T17:33:10.919Z,53.50
2023-08-14T17:35:47.592Z,53.60
2023-08-14T17:38:21.164Z,53.70
2023-08-14T17:40:55.836Z,53.90
2023-08-14T17:43:29.146Z,54.10
2023-08-14T17:46:03.556Z,54.20
2023-08-14T17:48:36.874Z,54.40
2023-08-14T17:51:28.540Z,54.50
2023-08-14T17:54:01.926Z,54.50
2023-08-14T17:56:36.582Z,54.50
2023-08-14T17:59:10.389Z,54.70
2023-08-14T18:01:43.735Z,54.60
2023-08-14T18:04:17.070Z,54.70
2023-08-14T18:06:50.428Z,54.70
2023-08-14T18:09:23.817Z,54.80
2023-08-14T18:11:58.414Z,54.80
2023-08-14T18:14:31.680Z,54.90
2023-08-14T18:17:05.107Z,55.00
2023-08-14T18:19:39.400Z,55.00
2023-08-14T18:22:12.673Z,55.10
2023-08-14T18:24:46.329Z,55.20
2023-08-14T18:27:21.219Z,55.30
2023-08-14T18:29:54.889Z,55.20
2023-08-14T18:32:28.206Z,55.40
2023-08-14T18:35:01.556Z,55.60
2023-08-14T18:37:34.915Z,55.90
2023-08-14T18:40:10.684Z,56.20
2023-08-14T18:42:45.417Z,56.50
2023-08-14T18:45:18.874Z,56.60
2023-08-14T18:47:52.149Z,56.50
2023-08-14T18:50:26.518Z,56.40
2023-08-14T18:53:00.969Z,56.40
2023-08-14T18:55:39.284Z,56.50
2023-08-14T18:58:14.968Z,56.60
2023-08-14T19:00:49.032Z,56.70
2023-08-14T19:03:22.275Z,56.70
2023-08-14T19:05:57.782Z,57.10
2023-08-14T19:08:31.025Z,57.30
2023-08-14T19:11:04.283Z,57.20
2023-08-14T19:13:39.058Z,57.80
2023-08-14T19:16:12.346Z,58.00
2023-08-14T19:18:45.858Z,58.40
2023-08-14T19:21:19.345Z,59.00
2023-08-14T19:23:52.801Z,59.20
2023-08-14T19:26:28.577Z,59.20
2023-08-14T19:29:04.725Z,59.50
2023-08-14T19:31:38.324Z,60.40
2023-08-14T19:34:11.714Z,59.90
2023-08-14T19:36:45.004Z,60.70
2023-08-14T19:39:18.302Z,60.30
2023-08-14T19:41:51.679Z,60.70
2023-08-14T19:44:26.433Z,60.90
2023-08-14T19:47:01.223Z,61.20
2023-08-14T19:49:34.879Z,61.40
2023-08-14T19:52:08.335Z,61.60
2023-08-14T19:54:41.650Z,61.60
2023-08-14T19:57:14.961Z,61.80
2023-08-14T19:59:49.813Z,61.90
2023-08-14T20:02:23.878Z,62.00
2023-08-14T20:04:57.284Z,61.80
2023-08-14T20:07:30.660Z,61.60
2023-08-14T20:10:04.247Z,61.50
2023-08-14T20:12:37.501Z,61.50
2023-08-14T20:15:12.620Z,61.40
2023-08-14T20:17:45.917Z,61.30
2023-08-14T20:20:20.952Z,61.20
2023-08-14T20:22:54.842Z,61.10
2023-08-14T20:25:29.432Z,61.10
2023-08-14T20:28:02.859Z,61.00
2023-08-14T20:30:42.089Z,61.10
2023-08-14T20:33:16.042Z,61.20
2023-08-14T20:35:49.470Z,61.10
2023-08-14T20:38:22.819Z,61.10
2023-08-14T20:40:56.259Z,61.10
2023-08-14T20:43:31.291Z,61.00
2023-08-14T20:46:05.920Z,61.00
2023-08-14T20:48:39.376Z,61.60
2023-08-14T20:51:12.997Z,61.00
2023-08-14T20:53:46.242Z,61.00
2023-08-14T20:56:19.508Z,61.00
2023-08-14T20:58:52.760Z,61.00
2023-08-14T21:01:27.416Z,61.00
2023-08-14T21:04:00.801Z,61.00
2023-08-14T21:06:34.130Z,61.00
2023-08-14T21:09:08.267Z,61.00
2023-08-14T21:11:42.958Z,61.00
2023-08-14T21:14:16.236Z,61.00
2023-08-14T21:16:50.907Z,61.00
2023-08-14T21:19:24.314Z,61.10
2023-08-14T21:21:57.666Z,61.10
2023-08-14T21:24:31.154Z,61.00
2023-08-14T21:27:04.545Z,61.10
2023-08-14T21:29:37.842Z,61.10
2023-08-14T21:32:12.497Z,61.10
2023-08-14T21:34:47.079Z,61.00
2023-08-14T21:37:20.613Z,61.10
2023-08-14T21:39:54.138Z,61.10
2023-08-14T21:42:27.420Z,61.10
2023-08-14T21:45:00.649Z,61.00
2023-08-14T21:47:35.249Z,61.10
2023-08-14T21:50:09.333Z,61.10
2023-08-14T21:52:42.639Z,61.20
2023-08-14T21:55:16.002Z,61.70
2023-08-14T21:57:49.284Z,61.20
2023-08-14T22:00:22.609Z,61.10
2023-08-14T22:02:57.287Z,61.10
2023-08-14T22:05:30.621Z,61.20
2023-08-14T22:08:04.002Z,61.20
2023-08-14T22:10:37.317Z,61.20
2023-08-14T22:13:10.525Z,61.20
2023-08-14T22:15:46.370Z,61.20
2023-08-14T22:18:21.465Z,61.20
2023-08-14T22:20:55.226Z,61.20
2023-08-14T22:23:31.518Z,61.20
2023-08-14T22:26:04.837Z,61.30
2023-08-14T22:28:39.880Z,61.10
2023-08-14T22:31:15.040Z,61.30
2023-08-14T22:33:49.711Z,61.20
2023-08-14T22:36:22.981Z,61.20
2023-08-14T22:38:56.230Z,61.20
2023-08-14T22:41:29.504Z,61.20
2023-08-14T22:44:02.775Z,61.10
2023-08-14T22:46:36.064Z,61.10
2023-08-14T22:49:10.687Z,61.10
2023-08-14T22:51:43.942Z,61.20
2023-08-14T22:54:17.268Z,61.10
2023-08-14T22:56:50.507Z,61.10
2023-08-14T22:59:23.770Z,61.30
2023-08-14T23:01:56.990Z,61.50
2023-08-14T23:04:31.591Z,61.60
2023-08-14T23:07:04.972Z,61.80
2023-08-14T23:09:38.353Z,61.90
2023-08-14T23:12:11.573Z,62.00
2023-08-14T23:14:44.842Z,62.00
2023-08-14T23:17:18.366Z,62.10
2023-08-14T23:19:53.680Z,62.10
2023-08-14T23:22:27.007Z,62.30
2023-08-14T23:25:00.388Z,62.30
2023-08-14T23:27:33.662Z,62.30
2023-08-14T23:30:08.109Z,62.30
2023-08-14T23:32:41.518Z,62.30
2023-08-14T23:35:16.326Z,62.40
2023-08-14T23:37:52.130Z,62.40
2023-08-14T23:40:25.481Z,62.40
2023-08-14T23:42:59.096Z,62.40
2023-08-14T23:45:32.521Z,62.30
2023-08-14T23:48:06.836Z,62.40
2023-08-14T23:50:41.895Z,62.90
2023-08-14T23:53:15.254Z,62.20
2023-08-14T23:55:48.731Z,62.20
2023-08-14T23:58:22.161Z,62.30
